Data for 11/26/2005

Time Sea-Level Adjusted Pressure Absolute Pressure Temperature Relative Humidity Dew Point   
(mb) (inHg) (mb) (inHg) (C) (F) (%) (C) (F)
00:05 1006 29.71 835 24.66 0.6 33 98 0.3 32.5
00:10 1006 29.71 835 24.66 0.6 33.1 98 0.3 32.5
00:15 1006 29.71 835 24.66 0.7 33.2 97 0.3 32.5
00:20 1006 29.71 835 24.66 0.6 33.1 97 0.3 32.5
00:25 1006 29.71 835 24.66 0.7 33.3 98 0.4 32.7
00:30 1006 29.71 835 24.66 0.9 33.6 97 0.4 32.8
00:35 1006 29.71 835 24.66 0.8 33.5 97 0.4 32.6
00:40 1006 29.71 835 24.66 0.7 33.3 97 0.3 32.5
00:45 1006 29.71 835 24.66 0.7 33.3 97 0.3 32.5
00:50 1005 29.68 835 24.66 0.7 33.3 97 0.3 32.5
00:55 1005 29.68 835 24.66 0.7 33.3 97 0.3 32.5
01:00 1005 29.68 835 24.66 0.7 33.2 97 0.2 32.4
01:05 1005 29.68 835 24.66 0.6 33.1 97 0.2 32.3
01:10 1005 29.68 835 24.66 0.6 33.2 97 0.2 32.4
01:15 1005 29.68 834 24.63 0.6 33.1 97 0.2 32.4
01:20 1005 29.68 834 24.63 0.6 33 97 0.2 32.4
01:25 1005 29.68 834 24.63 0.6 33.1 97 0.2 32.4
01:30 1005 29.68 834 24.63 0.7 33.2 98 0.3 32.5
01:35 1005 29.68 834 24.63 0.7 33.2 98 0.3 32.6
01:40 1005 29.68 834 24.63 0.7 33.2 97 0.3 32.5
01:45 1005 29.68 834 24.63 0.7 33.3 97 0.4 32.6
01:50 1005 29.68 834 24.63 0.6 33.2 97 0.3 32.5
01:55 1005 29.68 834 24.63 0.6 33.1 97 0.2 32.4
02:00 1005 29.68 834 24.63 0.6 33.1 97 0.2 32.4
02:05 1005 29.68 834 24.63 0.6 33.1 98 0.3 32.5
02:10 1005 29.68 834 24.63 0.6 33.1 97 0.2 32.4
02:15 1005 29.68 834 24.63 0.6 33.1 97 0.2 32.4
02:20 1005 29.68 834 24.63 0.6 33.1 97 0.2 32.4
02:25 1005 29.68 834 24.63 0.6 33.1 97 0.2 32.3
02:30 1005 29.68 834 24.63 0.6 33.2 97 0.3 32.5
02:35 1005 29.68 834 24.63 0.6 33.1 97 0.2 32.3
02:40 1005 29.68 834 24.63 0.7 33.2 97 0.2 32.4
02:45 1005 29.68 834 24.63 0.6 33.1 97 0.2 32.4
02:50 1005 29.68 834 24.63 0.6 33.1 97 0.2 32.4
02:55 1005 29.68 834 24.63 0.6 33.1 97 0.2 32.4
03:00 1005 29.68 834 24.63 0.6 33.1 97 0.2 32.4
03:05 1005 29.68 834 24.63 0.6 33.1 97 0.1 32.3
03:10 1005 29.68 834 24.63 0.6 33.1 97 0.2 32.3
03:15 1005 29.68 834 24.63 0.6 33 97 0.1 32.2
03:20 1005 29.68 834 24.63 0.6 33 97 0.1 32.2
03:25 1005 29.68 834 24.63 0.5 32.9 97 0.1 32.1
03:30 1005 29.68 834 24.63 0.5 32.9 97 0.1 32.1
03:35 1005 29.68 834 24.63 0.5 32.8 97 0 32.1
03:40 1005 29.68 834 24.63 0.5 32.9 97 0.1 32.2
03:45 1005 29.68 834 24.63 0.5 33 97 0.1 32.2
03:50 1005 29.68 834 24.63 0.5 32.9 97 0.1 32.1
03:55 1005 29.68 834 24.63 0.5 32.8 97 0 32
04:00 1005 29.68 834 24.63 0.4 32.7 97 -0 31.9
04:05 1005 29.68 834 24.63 0.3 32.6 97 -0.1 31.9
04:10 1005 29.68 834 24.63 0.4 32.8 97 0 32.1
04:15 1005 29.68 834 24.63 0.3 32.6 97 -0.1 31.9
04:20 1005 29.68 834 24.63 0.3 32.5 97 -0.1 31.9
04:25 1005 29.68 834 24.63 0.2 32.4 98 -0.1 31.8
04:30 1005 29.68 834 24.63 0.1 32.2 98 -0.2 31.6
04:35 1005 29.68 834 24.63 0.1 32.2 98 -0.2 31.7
04:40 1005 29.68 834 24.63 0.1 32.3 98 -0.1 31.8
04:45 1005 29.68 834 24.63 0.2 32.3 98 -0.1 31.8
04:50 1005 29.68 834 24.63 0.2 32.3 98 -0.1 31.9
04:55 1005 29.68 834 24.63 0.2 32.3 98 -0.1 31.8
05:00 1005 29.68 834 24.63 0.1 32.1 98 -0.1 31.7
05:05 1005 29.68 834 24.63 0 32 99 -0.2 31.7
05:10 1005 29.68 834 24.63 -0.1 31.7 98 -0.4 31.3
05:15 1005 29.68 834 24.63 -0.3 31.5 99 -0.4 31.3
05:20 1005 29.68 834 24.63 -0.2 31.6 100 -0.3 31.5
05:25 1005 29.68 834 24.63 -0.1 31.9 100 -0.1 31.7
05:30 1005 29.68 834 24.63 0 32 100 -0 31.9
05:35 1005 29.68 834 24.63 0.1 32.1 99 -0 32
05:40 1005 29.68 834 24.63 0.1 32.2 99 0.1 32.1
05:45 1005 29.68 834 24.63 0.2 32.3 99 0.1 32.2
05:50 1005 29.68 834 24.63 0.2 32.4 99 0.1 32.2
05:55 1005 29.68 834 24.63 0.2 32.4 99 0.1 32.3
06:00 1005 29.68 834 24.63 0.3 32.5 99 0.2 32.3
06:05 1005 29.68 834 24.63 0.3 32.5 99 0.2 32.3
06:10 1005 29.68 834 24.63 0.3 32.5 99 0.2 32.4
06:15 1005 29.68 834 24.63 0.3 32.5 99 0.2 32.3
06:20 1005 29.68 834 24.63 0.2 32.4 99 0.1 32.2
06:25 1005 29.68 834 24.63 0.2 32.3 99 0.1 32.2
06:30 1005 29.68 834 24.63 0.2 32.3 99 0.1 32.1
06:35 1005 29.68 834 24.63 0.2 32.4 99 0.1 32.2
06:40 1005 29.68 834 24.63 0.2 32.3 99 0.1 32.2
06:45 1005 29.68 834 24.63 0.2 32.3 99 0.1 32.2
06:50 1005 29.68 834 24.63 0.1 32.2 100 0 32
06:55 1005 29.68 835 24.66 0.1 32.2 99 0 32.1
07:00 1005 29.68 835 24.66 0.1 32.2 99 0 32
07:05 1005 29.68 835 24.66 0.1 32.1 99 -0 31.9
07:10 1005 29.68 835 24.66 0.1 32.2 99 0 32
07:15 1005 29.68 835 24.66 0.1 32.1 99 -0 32
07:20 1005 29.68 835 24.66 0 32 100 -0 31.9
07:25 1005 29.68 835 24.66 0 32 100 -0.1 31.9
07:30 1005 29.68 835 24.66 -0.1 31.9 100 -0.1 31.7
07:35 1005 29.68 835 24.66 -0.1 31.9 100 -0.1 31.8
07:40 1005 29.68 835 24.66 -0 31.9 100 -0.1 31.8
07:45 1005 29.68 835 24.66 -0.1 31.9 100 -0.1 31.8
07:50 1006 29.71 835 24.66 -0.1 31.9 100 -0.1 31.8
07:55 1006 29.71 835 24.66 -0.1 31.8 100 -0.2 31.7
08:00 1006 29.71 835 24.66 -0.1 31.7 100 -0.2 31.6
08:05 1006 29.71 835 24.66 -0.2 31.6 100 -0.3 31.5
08:10 1006 29.71 835 24.66 -0.2 31.7 100 -0.2 31.6
08:15 1006 29.71 835 24.66 -0.2 31.6 100 -0.3 31.5
08:20 1006 29.71 835 24.66 -0.2 31.6 100 -0.3 31.5
08:25 1006 29.71 835 24.66 -0.2 31.6 100 -0.3 31.5
08:30 1006 29.71 835 24.66 -0.2 31.7 100 -0.2 31.6
08:35 1006 29.71 835 24.66 -0.2 31.6 100 -0.3 31.5
08:40 1006 29.71 835 24.66 -0.2 31.6 100 -0.3 31.5
08:45 1006 29.71 835 24.66 -0.3 31.5 100 -0.3 31.4
08:50 1006 29.71 835 24.66 -0.2 31.6 100 -0.3 31.5
08:55 1006 29.71 835 24.66 -0.3 31.5 100 -0.3 31.4
09:00 1006 29.71 835 24.66 -0.4 31.4 100 -0.4 31.3
09:05 1006 29.71 835 24.66 -0.4 31.3 100 -0.5 31.2
09:10 1006 29.71 835 24.66 -0.3 31.4 100 -0.4 31.3
09:15 1006 29.71 835 24.66 -0.3 31.4 99 -0.4 31.2
09:20 1006 29.71 835 24.66 -0.3 31.4 99 -0.4 31.3
09:25 1006 29.71 835 24.66 -0.3 31.5 100 -0.4 31.4
09:30 1006 29.71 835 24.66 -0.3 31.5 100 -0.3 31.4
09:35 1006 29.71 835 24.66 -0.3 31.5 99 -0.4 31.3
09:40 1006 29.71 835 24.66 -0.2 31.7 99 -0.3 31.5
09:45 1006 29.71 835 24.66 -0.2 31.6 99 -0.3 31.4
09:50 1006 29.71 835 24.66 -0.2 31.6 99 -0.3 31.5
09:55 1006 29.71 835 24.66 -0.3 31.5 99 -0.4 31.3
10:00 1006 29.71 835 24.66 -0.2 31.6 99 -0.4 31.3
10:05 1006 29.71 835 24.66 -0.3 31.5 98 -0.6 31
10:10 1006 29.71 835 24.66 -0.4 31.2 98 -0.7 30.8
10:15 1006 29.71 836 24.69 -0.5 31.2 98 -0.7 30.7
10:20 1006 29.71 836 24.69 -0.4 31.3 98 -0.7 30.8
10:25 1006 29.71 836 24.69 -0.4 31.3 98 -0.6 30.9
10:30 1007 29.74 836 24.69 -0.4 31.4 98 -0.6 30.9
10:35 1007 29.74 836 24.69 -0.2 31.6 98 -0.5 31.1
10:40 1007 29.74 836 24.69 -0.2 31.6 97 -0.6 30.9
10:45 1007 29.74 836 24.69 -0.2 31.6 97 -0.6 31
10:50 1007 29.74 836 24.69 -0.2 31.6 97 -0.6 30.9
10:55 1007 29.74 836 24.69 -0.2 31.6 96 -0.7 30.7
11:00 1007 29.74 836 24.69 -0.2 31.6 95 -0.9 30.4
11:05 1007 29.74 836 24.69 -0.3 31.5 96 -0.8 30.5
11:10 1007 29.74 836 24.69 -0.3 31.4 96 -0.9 30.5
11:15 1007 29.74 836 24.69 -0.4 31.2 95 -1.1 30.1
11:20 1007 29.74 836 24.69 -0.4 31.2 94 -1.2 29.8
11:25 1007 29.74 836 24.69 -0.6 30.9 95 -1.3 29.7
11:30 1007 29.74 836 24.69 -0.6 30.8 95 -1.3 29.6
11:35 1007 29.74 836 24.69 -0.5 31 95 -1.2 29.8
11:40 1007 29.74 836 24.69 -0.5 31.2 95 -1.1 29.9
11:45 1007 29.74 836 24.69 -0.6 30.9 95 -1.4 29.5
11:50 1007 29.74 836 24.69 -0.8 30.5 95 -1.5 29.2
11:55 1007 29.74 836 24.69 -1 30.2 96 -1.5 29.2
12:00 1007 29.74 836 24.69 -1.1 30.1 96 -1.6 29.1
12:05 1007 29.74 836 24.69 -1.1 30.1 95 -1.7 28.9
12:10 1007 29.74 836 24.69 -1.1 30 95 -1.8 28.7
12:15 1007 29.74 836 24.69 -1.2 29.8 94 -2.1 28.3
12:20 1007 29.74 836 24.69 -1.2 29.9 95 -1.9 28.6
12:25 1007 29.74 836 24.69 -1.1 29.9 95 -1.8 28.7
12:30 1007 29.74 836 24.69 -1.1 30 94 -1.9 28.5
12:35 1007 29.74 836 24.69 -1.1 29.9 95 -1.9 28.6
12:40 1007 29.74 836 24.69 -1.2 29.9 95 -1.9 28.6
12:45 1007 29.74 836 24.69 -1.1 29.9 95 -1.9 28.6
12:50 1007 29.74 836 24.69 -1.4 29.5 94 -2.3 27.9
12:55 1007 29.74 836 24.69 -1.6 29 95 -2.3 27.8
13:00 1007 29.74 837 24.72 -1.8 28.8 96 -2.3 27.8
13:05 1007 29.74 837 24.72 -1.7 28.9 96 -2.2 28
13:10 1007 29.74 837 24.72 -1.7 28.9 96 -2.2 28
13:15 1008 29.77 837 24.72 -1.8 28.7 96 -2.4 27.7
13:20 1008 29.77 837 24.72 -1.8 28.7 97 -2.3 27.9
13:25 1008 29.77 837 24.72 -1.9 28.5 97 -2.4 27.6
13:30 1008 29.77 837 24.72 -2 28.4 96 -2.5 27.5
13:35 1008 29.77 837 24.72 -2 28.4 97 -2.4 27.7
13:40 1008 29.77 837 24.72 -1.9 28.7 97 -2.3 27.9
13:45 1008 29.77 837 24.72 -1.8 28.7 96 -2.4 27.7
13:50 1008 29.77 837 24.72 -1.8 28.7 96 -2.4 27.7
13:55 1008 29.77 837 24.72 -1.9 28.7 96 -2.4 27.7
14:00 1008 29.77 837 24.72 -1.9 28.5 96 -2.5 27.5
14:05 1008 29.77 837 24.72 -2 28.4 96 -2.5 27.4
14:10 1008 29.77 837 24.72 -2.1 28.3 97 -2.5 27.5
14:15 1008 29.77 837 24.72 -2.1 28.2 96 -2.6 27.3
14:20 1008 29.77 837 24.72 -2.2 28.1 96 -2.7 27.2
14:25 1008 29.77 837 24.72 -2.3 27.8 97 -2.8 27
14:30 1008 29.77 837 24.72 -2.4 27.6 97 -2.8 27
14:35 1008 29.77 837 24.72 -2.4 27.8 98 -2.7 27.1
14:40 1008 29.77 837 24.72 -2.2 28 98 -2.6 27.4
14:45 1008 29.77 837 24.72 -2.1 28.3 98 -2.3 27.8
14:50 1008 29.77 838 24.75 -1.9 28.5 97 -2.4 27.8
14:55 1008 29.77 838 24.75 -2.1 28.3 97 -2.5 27.4
15:00 1008 29.77 838 24.75 -2.1 28.1 97 -2.6 27.4
15:05 1009 29.8 838 24.75 -2.2 28 97 -2.7 27.2
15:10 1009 29.8 838 24.75 -2.3 27.9 97 -2.7 27.1
15:15 1009 29.8 838 24.75 -2.3 27.8 98 -2.7 27.2
15:20 1009 29.8 838 24.75 -2.3 27.8 97 -2.7 27.2
15:25 1009 29.8 838 24.75 -2.4 27.7 97 -2.8 27
15:30 1009 29.8 838 24.75 -2.4 27.7 98 -2.7 27.2
15:35 1009 29.8 838 24.75 -2.4 27.6 96 -2.9 26.7
15:40 1009 29.8 838 24.75 -2.6 27.2 96 -3.3 26.1
15:45 1009 29.8 838 24.75 -2.8 26.9 96 -3.4 25.9
15:50 1009 29.8 838 24.75 -3 26.5 95 -3.7 25.3
15:55 1009 29.8 839 24.78 -3.1 26.4 95 -3.8 25.2
16:00 1009 29.8 839 24.78 -3.2 26.3 96 -3.7 25.3
16:05 1009 29.8 839 24.78 -3.1 26.5 97 -3.5 25.7
16:10 1010 29.83 839 24.78 -3 26.7 97 -3.4 26
16:15 1010 29.83 839 24.78 -2.9 26.9 97 -3.3 26.1
16:20 1010 29.83 839 24.78 -2.7 27.1 97 -3.1 26.3
16:25 1010 29.83 839 24.78 -2.8 27 94 -3.6 25.6
16:30 1010 29.83 839 24.78 -3.1 26.4 93 -4 24.7
16:35 1010 29.83 839 24.78 -3.3 26.1 94 -4.1 24.6
16:40 1010 29.83 839 24.78 -3.3 26.1 95 -4 24.8
16:45 1010 29.83 839 24.78 -3.3 26 96 -3.9 25
16:50 1010 29.83 839 24.78 -3.3 26.1 97 -3.7 25.3
16:55 1010 29.83 839 24.78 -3.3 26.1 96 -3.8 25.2
17:00 1010 29.83 839 24.78 -3.4 26 97 -3.8 25.2
17:05 1010 29.83 840 24.81 -3.3 26 96 -3.9 25
17:10 1010 29.83 840 24.81 -3.5 25.7 96 -4 24.7
17:15 1011 29.85 840 24.81 -3.6 25.6 96 -4.1 24.6
17:20 1011 29.85 840 24.81 -3.6 25.6 96 -4.1 24.6
17:25 1011 29.85 840 24.81 -3.6 25.5 96 -4.2 24.5
17:30 1011 29.85 840 24.81 -3.6 25.4 96 -4.2 24.4
17:35 1011 29.85 840 24.81 -3.7 25.4 96 -4.2 24.4
17:40 1011 29.85 840 24.81 -3.6 25.5 96 -4.1 24.6
17:45 1011 29.85 840 24.81 -3.7 25.4 96 -4.3 24.3
17:50 1011 29.85 840 24.81 -3.7 25.3 96 -4.3 24.3
17:55 1011 29.85 840 24.81 -3.7 25.3 96 -4.3 24.3
18:00 1011 29.85 840 24.81 -3.8 25.2 96 -4.3 24.3
18:05 1011 29.85 840 24.81 -3.8 25.2 96 -4.4 24.1
18:10 1011 29.85 840 24.81 -4 24.8 96 -4.5 23.9
18:15 1011 29.85 840 24.81 -4 24.8 96 -4.5 23.9
18:20 1011 29.85 840 24.81 -4 24.7 96 -4.6 23.7
18:25 1011 29.85 840 24.81 -4.1 24.7 96 -4.6 23.7
18:30 1011 29.85 840 24.81 -4.1 24.6 96 -4.6 23.7
18:35 1011 29.85 840 24.81 -4 24.8 96 -4.6 23.8
18:40 1011 29.85 840 24.81 -4 24.8 95 -4.7 23.6
18:45 1011 29.85 840 24.81 -4.1 24.7 95 -4.7 23.5
18:50 1011 29.85 840 24.81 -4.1 24.5 95 -4.8 23.4
18:55 1011 29.85 840 24.81 -4.1 24.6 95 -4.8 23.4
19:00 1011 29.85 840 24.81 -4.2 24.5 95 -4.9 23.2
19:05 1011 29.85 840 24.81 -4.2 24.4 95 -4.9 23.2
19:10 1011 29.85 840 24.81 -4.3 24.3 96 -4.9 23.2
19:15 1011 29.85 840 24.81 -4.3 24.3 96 -4.9 23.2
19:20 1011 29.85 840 24.81 -4.3 24.2 96 -4.8 23.3
19:25 1011 29.85 840 24.81 -4.3 24.2 96 -4.9 23.3
19:30 1011 29.85 840 24.81 -4.2 24.4 96 -4.8 23.4
19:35 1011 29.85 841 24.83 -4.2 24.5 95 -4.8 23.4
19:40 1011 29.85 841 24.83 -4.1 24.5 95 -4.9 23.3
19:45 1011 29.85 841 24.83 -4.2 24.5 94 -4.9 23.1
19:50 1012 29.88 841 24.83 -4.2 24.4 94 -5 23
19:55 1012 29.88 841 24.83 -4.2 24.4 94 -5 23
20:00 1012 29.88 841 24.83 -4.3 24.3 93 -5.2 22.7
20:05 1012 29.88 841 24.83 -4.3 24.2 93 -5.3 22.4
20:10 1012 29.88 841 24.83 -4.4 24.1 92 -5.4 22.2
20:15 1012 29.88 841 24.83 -4.4 24 93 -5.4 22.2
20:20 1012 29.88 841 24.83 -4.5 23.9 92 -5.6 22
20:25 1012 29.88 841 24.83 -4.5 24 92 -5.6 21.8
20:30 1012 29.88 841 24.83 -4.6 23.8 91 -5.8 21.5
20:35 1012 29.88 841 24.83 -4.5 23.9 92 -5.7 21.8
20:40 1012 29.88 841 24.83 -4.5 24 91 -5.7 21.8
20:45 1012 29.88 841 24.83 -4.4 24.1 92 -5.6 22
20:50 1012 29.88 841 24.83 -4.4 24.2 92 -5.5 22
20:55 1012 29.88 841 24.83 -4.4 24 91 -5.7 21.8
21:00 1012 29.88 841 24.83 -4.5 23.9 91 -5.7 21.7
21:05 1012 29.88 841 24.83 -4.5 24 89 -5.9 21.3
21:10 1012 29.88 841 24.83 -4.5 23.9 89 -6.1 21
21:15 1012 29.88 841 24.83 -4.5 23.9 90 -6 21.3
21:20 1012 29.88 841 24.83 -4.5 23.9 89 -6.1 21.1
21:25 1012 29.88 841 24.83 -4.5 23.9 87 -6.3 20.7
21:30 1012 29.88 841 24.83 -4.5 23.9 88 -6.1 21
21:35 1012 29.88 841 24.83 -4.5 23.9 85 -6.6 20.1
21:40 1012 29.88 841 24.83 -4.5 23.9 85 -6.6 20.1
21:45 1012 29.88 841 24.83 -4.5 23.9 85 -6.6 20.1
21:50 1012 29.88 841 24.83 -4.5 23.9 86 -6.6 20.2
21:55 1012 29.88 841 24.83 -4.5 24 85 -6.6 20.1
22:00 1012 29.88 841 24.83 -4.4 24 83 -6.8 19.7
22:05 1012 29.88 841 24.83 -4.5 23.9 81 -7.2 19
22:10 1012 29.88 841 24.83 -4.5 23.9 83 -6.9 19.5
22:15 1012 29.88 841 24.83 -4.5 23.9 82 -7.1 19.2
22:20 1012 29.88 841 24.83 -4.5 23.8 83 -6.9 19.5
22:25 1012 29.88 841 24.83 -4.6 23.8 81 -7.4 18.7
22:30 1012 29.88 841 24.83 -4.6 23.8 82 -7.1 19.2
22:35 1012 29.88 842 24.86 -4.6 23.7 83 -7 19.3
22:40 1012 29.88 842 24.86 -4.7 23.6 84 -7 19.4
22:45 1012 29.88 842 24.86 -4.7 23.5 82 -7.4 18.7
22:50 1012 29.88 842 24.86 -4.8 23.4 82 -7.4 18.6
22:55 1012 29.88 842 24.86 -4.8 23.3 82 -7.4 18.6
23:00 1013 29.91 842 24.86 -4.8 23.4 81 -7.5 18.4
23:05 1013 29.91 842 24.86 -4.8 23.3 81 -7.6 18.3
23:10 1013 29.91 842 24.86 -4.8 23.3 82 -7.5 18.5
23:15 1013 29.91 842 24.86 -4.9 23.2 83 -7.4 18.7
23:20 1013 29.91 842 24.86 -4.9 23.1 84 -7.3 18.9
23:25 1013 29.91 842 24.86 -5 22.9 85 -7.1 19.2
23:30 1013 29.91 842 24.86 -5.1 22.8 87 -7 19.3
23:35 1013 29.91 842 24.86 -5.2 22.7 86 -7.2 19
23:40 1013 29.91 842 24.86 -5.2 22.7 86 -7.1 19.2
23:45 1013 29.91 842 24.86 -5.2 22.7 86 -7.1 19.2
23:50 1013 29.91 842 24.86 -5.2 22.7 86 -7.2 19.1
23:55 1013 29.91 842 24.86 -5.1 22.8 86 -7.2 19.1
24:00 1013 29.91 842 24.86 -5.2 22.7 86 -7.1 19.2